sensor_id;sensor_type;location;lat;lon;timestamp;P1;durP1;ratioP1;P2;durP2;ratioP2
69912;SDS011;57198;52.082;5.108;2024-03-23T00:54:24;23.92;;;8.07;;
69912;SDS011;57198;52.082;5.108;2024-03-23T00:56:51;21.60;;;8.25;;
69912;SDS011;57198;52.082;5.108;2024-03-23T00:59:18;23.50;;;7.82;;
69912;SDS011;57198;52.082;5.108;2024-03-23T01:01:45;17.80;;;6.85;;
69912;SDS011;57198;52.082;5.108;2024-03-23T01:04:11;24.73;;;7.78;;
69912;SDS011;57198;52.082;5.108;2024-03-23T01:06:37;24.02;;;7.22;;
69912;SDS011;57198;52.082;5.108;2024-03-23T01:09:04;24.05;;;7.78;;
69912;SDS011;57198;52.082;5.108;2024-03-23T01:11:31;17.73;;;6.70;;
69912;SDS011;57198;52.082;5.108;2024-03-23T01:13:57;19.50;;;7.35;;
69912;SDS011;57198;52.082;5.108;2024-03-23T01:16:24;26.30;;;8.10;;
69912;SDS011;57198;52.082;5.108;2024-03-23T01:18:50;20.20;;;6.15;;
69912;SDS011;57198;52.082;5.108;2024-03-23T01:21:17;22.25;;;6.70;;
69912;SDS011;57198;52.082;5.108;2024-03-23T01:23:43;31.65;;;7.22;;
69912;SDS011;57198;52.082;5.108;2024-03-23T01:26:09;21.90;;;6.22;;
69912;SDS011;57198;52.082;5.108;2024-03-23T01:28:36;22.40;;;6.95;;
69912;SDS011;57198;52.082;5.108;2024-03-23T01:31:02;21.85;;;7.35;;
69912;SDS011;57198;52.082;5.108;2024-03-23T01:33:29;20.42;;;5.75;;
69912;SDS011;57198;52.082;5.108;2024-03-23T01:35:55;20.30;;;6.05;;
69912;SDS011;57198;52.082;5.108;2024-03-23T01:38:22;20.13;;;7.18;;
69912;SDS011;57198;52.082;5.108;2024-03-23T01:40:48;23.17;;;6.85;;
69912;SDS011;57198;52.082;5.108;2024-03-23T01:43:14;17.20;;;5.90;;
69912;SDS011;57198;52.082;5.108;2024-03-23T01:45:41;27.67;;;6.13;;
69912;SDS011;57198;52.082;5.108;2024-03-23T01:48:07;16.58;;;5.72;;
69912;SDS011;57198;52.082;5.108;2024-03-23T01:50:34;22.02;;;6.63;;
69912;SDS011;57198;52.082;5.108;2024-03-23T01:53:04;18.90;;;5.75;;
69912;SDS011;57198;52.082;5.108;2024-03-23T01:55:34;20.88;;;6.47;;
69912;SDS011;57198;52.082;5.108;2024-03-23T01:58:04;23.65;;;5.75;;
69912;SDS011;57198;52.082;5.108;2024-03-23T02:00:31;20.83;;;6.07;;
69912;SDS011;57198;52.082;5.108;2024-03-23T02:02:57;22.73;;;5.60;;
69912;SDS011;57198;52.082;5.108;2024-03-23T02:05:23;18.77;;;5.55;;
69912;SDS011;57198;52.082;5.108;2024-03-23T02:07:50;19.95;;;6.65;;
69912;SDS011;57198;52.082;5.108;2024-03-23T02:10:16;21.48;;;6.32;;
69912;SDS011;57198;52.082;5.108;2024-03-23T02:12:43;21.48;;;5.93;;
69912;SDS011;57198;52.082;5.108;2024-03-23T02:15:09;13.82;;;5.13;;
69912;SDS011;57198;52.082;5.108;2024-03-23T02:17:36;16.15;;;5.93;;
69912;SDS011;57198;52.082;5.108;2024-03-23T02:20:02;17.30;;;5.72;;
69912;SDS011;57198;52.082;5.108;2024-03-23T02:22:35;22.95;;;5.80;;
69912;SDS011;57198;52.082;5.108;2024-03-23T02:25:03;16.73;;;5.88;;
69912;SDS011;57198;52.082;5.108;2024-03-23T02:27:29;19.50;;;5.03;;
69912;SDS011;57198;52.082;5.108;2024-03-23T02:29:55;17.70;;;6.22;;
69912;SDS011;57198;52.082;5.108;2024-03-23T02:32:22;23.70;;;6.45;;
69912;SDS011;57198;52.082;5.108;2024-03-23T02:34:48;15.35;;;5.30;;
69912;SDS011;57198;52.082;5.108;2024-03-23T02:37:14;18.63;;;5.68;;
69912;SDS011;57198;52.082;5.108;2024-03-23T02:39:41;13.95;;;5.38;;
69912;SDS011;57198;52.082;5.108;2024-03-23T02:42:07;13.40;;;5.20;;
69912;SDS011;57198;52.082;5.108;2024-03-23T02:44:34;13.82;;;5.20;;
69912;SDS011;57198;52.082;5.108;2024-03-23T02:47:00;18.25;;;5.70;;
69912;SDS011;57198;52.082;5.108;2024-03-23T02:49:26;19.70;;;5.20;;
69912;SDS011;57198;52.082;5.108;2024-03-23T02:51:53;18.83;;;5.07;;
69912;SDS011;57198;52.082;5.108;2024-03-23T02:54:19;17.95;;;5.18;;
69912;SDS011;57198;52.082;5.108;2024-03-23T02:56:46;16.50;;;6.38;;
69912;SDS011;57198;52.082;5.108;2024-03-23T02:59:12;15.57;;;5.93;;
69912;SDS011;57198;52.082;5.108;2024-03-23T03:01:39;14.57;;;5.68;;
69912;SDS011;57198;52.082;5.108;2024-03-23T03:04:05;18.55;;;5.47;;
69912;SDS011;57198;52.082;5.108;2024-03-23T03:06:32;14.52;;;5.10;;
69912;SDS011;57198;52.082;5.108;2024-03-23T03:08:59;16.75;;;4.95;;
69912;SDS011;57198;52.082;5.108;2024-03-23T03:11:25;14.90;;;5.07;;
69912;SDS011;57198;52.082;5.108;2024-03-23T03:13:52;15.57;;;4.53;;
69912;SDS011;57198;52.082;5.108;2024-03-23T03:16:18;20.50;;;6.03;;
69912;SDS011;57198;52.082;5.108;2024-03-23T03:18:44;16.20;;;4.88;;
69912;SDS011;57198;52.082;5.108;2024-03-23T03:21:12;13.98;;;5.15;;
69912;SDS011;57198;52.082;5.108;2024-03-23T03:23:38;19.88;;;5.53;;
69912;SDS011;57198;52.082;5.108;2024-03-23T03:26:05;12.02;;;5.20;;
69912;SDS011;57198;52.082;5.108;2024-03-23T03:28:32;14.10;;;4.55;;
69912;SDS011;57198;52.082;5.108;2024-03-23T03:30:58;15.50;;;5.18;;
69912;SDS011;57198;52.082;5.108;2024-03-23T03:33:28;13.23;;;3.67;;
69912;SDS011;57198;52.082;5.108;2024-03-23T03:35:54;12.40;;;4.63;;
69912;SDS011;57198;52.082;5.108;2024-03-23T03:38:21;17.60;;;5.07;;
69912;SDS011;57198;52.082;5.108;2024-03-23T03:40:47;11.45;;;4.53;;
69912;SDS011;57198;52.082;5.108;2024-03-23T03:43:14;13.77;;;5.05;;
69912;SDS011;57198;52.082;5.108;2024-03-23T03:45:40;19.30;;;4.18;;
69912;SDS011;57198;52.082;5.108;2024-03-23T03:48:07;13.48;;;4.20;;
69912;SDS011;57198;52.082;5.108;2024-03-23T03:50:33;15.90;;;3.97;;
69912;SDS011;57198;52.082;5.108;2024-03-23T03:52:59;8.93;;;3.60;;
69912;SDS011;57198;52.082;5.108;2024-03-23T03:55:26;17.50;;;3.40;;
69912;SDS011;57198;52.082;5.108;2024-03-23T03:57:53;12.32;;;3.55;;
69912;SDS011;57198;52.082;5.108;2024-03-23T04:00:19;10.38;;;3.22;;
69912;SDS011;57198;52.082;5.108;2024-03-23T04:02:45;14.65;;;3.85;;
69912;SDS011;57198;52.082;5.108;2024-03-23T04:05:12;11.73;;;3.85;;
69912;SDS011;57198;52.082;5.108;2024-03-23T04:07:39;18.98;;;3.38;;
69912;SDS011;57198;52.082;5.108;2024-03-23T04:10:05;11.32;;;3.38;;
69912;SDS011;57198;52.082;5.108;2024-03-23T04:12:33;11.27;;;3.47;;
69912;SDS011;57198;52.082;5.108;2024-03-23T04:15:00;16.48;;;3.67;;
69912;SDS011;57198;52.082;5.108;2024-03-23T04:17:29;15.07;;;3.33;;
69912;SDS011;57198;52.082;5.108;2024-03-23T04:19:57;12.18;;;3.30;;
69912;SDS011;57198;52.082;5.108;2024-03-23T04:22:24;10.55;;;2.65;;
69912;SDS011;57198;52.082;5.108;2024-03-23T04:24:55;8.73;;;2.65;;
69912;SDS011;57198;52.082;5.108;2024-03-23T04:27:22;10.68;;;3.00;;
69912;SDS011;57198;52.082;5.108;2024-03-23T04:29:50;12.95;;;2.95;;
69912;SDS011;57198;52.082;5.108;2024-03-23T04:32:16;11.95;;;3.03;;
69912;SDS011;57198;52.082;5.108;2024-03-23T04:34:43;13.18;;;3.10;;
69912;SDS011;57198;52.082;5.108;2024-03-23T04:37:10;11.63;;;3.05;;
69912;SDS011;57198;52.082;5.108;2024-03-23T04:39:36;9.15;;;3.28;;
69912;SDS011;57198;52.082;5.108;2024-03-23T04:42:03;4.55;;;2.10;;
69912;SDS011;57198;52.082;5.108;2024-03-23T04:44:29;10.32;;;3.40;;
69912;SDS011;57198;52.082;5.108;2024-03-23T04:46:56;12.13;;;3.53;;
69912;SDS011;57198;52.082;5.108;2024-03-23T04:49:23;12.85;;;3.25;;
69912;SDS011;57198;52.082;5.108;2024-03-23T04:51:50;16.08;;;3.58;;
69912;SDS011;57198;52.082;5.108;2024-03-23T04:54:17;11.15;;;3.08;;
69912;SDS011;57198;52.082;5.108;2024-03-23T04:56:43;6.88;;;3.17;;
69912;SDS011;57198;52.082;5.108;2024-03-23T04:59:09;12.95;;;3.58;;
69912;SDS011;57198;52.082;5.108;2024-03-23T05:01:36;10.20;;;3.33;;
69912;SDS011;57198;52.082;5.108;2024-03-23T05:04:08;11.73;;;3.58;;
69912;SDS011;57198;52.082;5.108;2024-03-23T05:06:35;11.90;;;3.20;;
69912;SDS011;57198;52.082;5.108;2024-03-23T05:09:01;8.75;;;2.67;;
69912;SDS011;57198;52.082;5.108;2024-03-23T05:11:37;13.25;;;3.38;;
69912;SDS011;57198;52.082;5.108;2024-03-23T05:14:04;8.20;;;2.65;;
69912;SDS011;57198;52.082;5.108;2024-03-23T05:16:30;12.60;;;3.03;;
69912;SDS011;57198;52.082;5.108;2024-03-23T05:18:57;13.60;;;3.40;;
69912;SDS011;57198;52.082;5.108;2024-03-23T05:21:23;9.10;;;3.13;;
69912;SDS011;57198;52.082;5.108;2024-03-23T05:23:49;10.50;;;2.85;;
69912;SDS011;57198;52.082;5.108;2024-03-23T05:26:17;11.05;;;2.70;;
69912;SDS011;57198;52.082;5.108;2024-03-23T05:28:43;8.70;;;2.90;;
69912;SDS011;57198;52.082;5.108;2024-03-23T05:31:09;7.82;;;2.70;;
69912;SDS011;57198;52.082;5.108;2024-03-23T05:33:36;8.65;;;2.95;;
69912;SDS011;57198;52.082;5.108;2024-03-23T05:36:06;6.75;;;2.72;;
69912;SDS011;57198;52.082;5.108;2024-03-23T05:38:36;9.23;;;3.00;;
69912;SDS011;57198;52.082;5.108;2024-03-23T05:41:03;11.60;;;2.75;;
69912;SDS011;57198;52.082;5.108;2024-03-23T05:43:29;11.70;;;3.15;;
69912;SDS011;57198;52.082;5.108;2024-03-23T05:45:56;10.00;;;2.90;;
69912;SDS011;57198;52.082;5.108;2024-03-23T05:48:23;8.15;;;2.70;;
69912;SDS011;57198;52.082;5.108;2024-03-23T05:50:49;10.07;;;2.83;;
69912;SDS011;57198;52.082;5.108;2024-03-23T05:53:16;7.72;;;2.55;;
69912;SDS011;57198;52.082;5.108;2024-03-23T05:55:43;10.02;;;2.58;;
69912;SDS011;57198;52.082;5.108;2024-03-23T05:58:09;9.48;;;2.60;;
69912;SDS011;57198;52.082;5.108;2024-03-23T06:00:36;9.13;;;2.70;;
69912;SDS011;57198;52.082;5.108;2024-03-23T06:03:02;7.30;;;2.35;;
69912;SDS011;57198;52.082;5.108;2024-03-23T06:05:29;8.35;;;2.47;;
69912;SDS011;57198;52.082;5.108;2024-03-23T06:07:55;7.85;;;2.72;;
69912;SDS011;57198;52.082;5.108;2024-03-23T06:10:21;6.75;;;2.85;;
69912;SDS011;57198;52.082;5.108;2024-03-23T06:12:48;11.00;;;3.50;;
69912;SDS011;57198;52.082;5.108;2024-03-23T06:15:20;6.32;;;2.22;;
69912;SDS011;57198;52.082;5.108;2024-03-23T06:17:48;12.85;;;5.97;;
69912;SDS011;57198;52.082;5.108;2024-03-23T06:20:15;7.70;;;2.92;;
69912;SDS011;57198;52.082;5.108;2024-03-23T06:22:41;9.95;;;3.00;;
69912;SDS011;57198;52.082;5.108;2024-03-23T06:25:08;8.80;;;3.13;;
69912;SDS011;57198;52.082;5.108;2024-03-23T06:27:34;6.97;;;2.72;;
69912;SDS011;57198;52.082;5.108;2024-03-23T06:30:00;6.93;;;3.00;;
69912;SDS011;57198;52.082;5.108;2024-03-23T06:32:27;10.18;;;3.92;;
69912;SDS011;57198;52.082;5.108;2024-03-23T06:34:57;6.57;;;2.10;;
69912;SDS011;57198;52.082;5.108;2024-03-23T06:37:23;10.10;;;3.00;;
69912;SDS011;57198;52.082;5.108;2024-03-23T06:39:50;9.63;;;3.65;;
69912;SDS011;57198;52.082;5.108;2024-03-23T06:42:16;7.15;;;2.95;;
69912;SDS011;57198;52.082;5.108;2024-03-23T06:44:43;9.88;;;3.47;;
69912;SDS011;57198;52.082;5.108;2024-03-23T06:47:09;8.02;;;3.05;;
69912;SDS011;57198;52.082;5.108;2024-03-23T06:49:36;8.55;;;2.92;;
69912;SDS011;57198;52.082;5.108;2024-03-23T06:52:02;10.27;;;3.28;;
69912;SDS011;57198;52.082;5.108;2024-03-23T06:54:29;7.63;;;2.72;;
69912;SDS011;57198;52.082;5.108;2024-03-23T06:56:55;12.38;;;3.38;;
69912;SDS011;57198;52.082;5.108;2024-03-23T06:59:21;14.13;;;3.55;;
69912;SDS011;57198;52.082;5.108;2024-03-23T07:01:48;11.35;;;3.22;;
69912;SDS011;57198;52.082;5.108;2024-03-23T07:04:14;13.52;;;4.15;;
69912;SDS011;57198;52.082;5.108;2024-03-23T07:06:44;6.60;;;3.13;;
69912;SDS011;57198;52.082;5.108;2024-03-23T07:09:10;10.45;;;3.60;;
69912;SDS011;57198;52.082;5.108;2024-03-23T07:11:37;8.13;;;3.90;;
69912;SDS011;57198;52.082;5.108;2024-03-23T07:14:04;6.47;;;2.67;;
69912;SDS011;57198;52.082;5.108;2024-03-23T07:16:30;6.43;;;3.58;;
69912;SDS011;57198;52.082;5.108;2024-03-23T07:18:57;7.88;;;3.28;;
69912;SDS011;57198;52.082;5.108;2024-03-23T07:21:24;7.57;;;3.00;;
69912;SDS011;57198;52.082;5.108;2024-03-23T07:23:50;9.15;;;2.72;;
69912;SDS011;57198;52.082;5.108;2024-03-23T07:26:16;6.35;;;2.55;;
69912;SDS011;57198;52.082;5.108;2024-03-23T07:28:44;10.02;;;3.47;;
69912;SDS011;57198;52.082;5.108;2024-03-23T07:31:11;9.80;;;2.90;;
69912;SDS011;57198;52.082;5.108;2024-03-23T07:33:42;7.32;;;2.45;;
69912;SDS011;57198;52.082;5.108;2024-03-23T07:36:08;10.55;;;2.67;;
69912;SDS011;57198;52.082;5.108;2024-03-23T07:38:35;8.02;;;2.83;;
69912;SDS011;57198;52.082;5.108;2024-03-23T07:41:05;7.53;;;2.63;;
69912;SDS011;57198;52.082;5.108;2024-03-23T07:43:31;7.57;;;2.83;;
69912;SDS011;57198;52.082;5.108;2024-03-23T07:45:58;8.32;;;2.72;;
69912;SDS011;57198;52.082;5.108;2024-03-23T07:48:25;11.98;;;3.10;;
69912;SDS011;57198;52.082;5.108;2024-03-23T07:51:01;7.72;;;2.45;;
69912;SDS011;57198;52.082;5.108;2024-03-23T07:53:28;8.57;;;2.95;;
69912;SDS011;57198;52.082;5.108;2024-03-23T07:55:55;8.55;;;3.00;;
69912;SDS011;57198;52.082;5.108;2024-03-23T07:58:22;3.75;;;2.80;;
69912;SDS011;57198;52.082;5.108;2024-03-23T08:00:49;13.88;;;3.20;;
69912;SDS011;57198;52.082;5.108;2024-03-23T08:03:15;8.50;;;2.40;;
69912;SDS011;57198;52.082;5.108;2024-03-23T08:05:42;11.13;;;2.95;;
69912;SDS011;57198;52.082;5.108;2024-03-23T08:08:08;9.93;;;2.38;;
69912;SDS011;57198;52.082;5.108;2024-03-23T08:10:36;8.63;;;2.25;;
69912;SDS011;57198;52.082;5.108;2024-03-23T08:13:03;11.93;;;2.65;;
69912;SDS011;57198;52.082;5.108;2024-03-23T08:15:30;11.80;;;2.88;;
69912;SDS011;57198;52.082;5.108;2024-03-23T08:18:00;10.32;;;2.90;;
69912;SDS011;57198;52.082;5.108;2024-03-23T08:20:26;8.15;;;2.90;;
69912;SDS011;57198;52.082;5.108;2024-03-23T08:22:53;12.90;;;2.30;;
69912;SDS011;57198;52.082;5.108;2024-03-23T08:25:19;5.90;;;2.00;;
69912;SDS011;57198;52.082;5.108;2024-03-23T08:27:46;7.97;;;2.33;;
69912;SDS011;57198;52.082;5.108;2024-03-23T08:30:12;5.15;;;2.15;;
69912;SDS011;57198;52.082;5.108;2024-03-23T08:32:39;9.45;;;2.40;;
69912;SDS011;57198;52.082;5.108;2024-03-23T08:35:05;9.30;;;2.20;;
69912;SDS011;57198;52.082;5.108;2024-03-23T08:37:32;4.93;;;1.83;;
69912;SDS011;57198;52.082;5.108;2024-03-23T08:39:58;5.88;;;2.65;;
69912;SDS011;57198;52.082;5.108;2024-03-23T08:42:25;7.35;;;2.63;;
69912;SDS011;57198;52.082;5.108;2024-03-23T08:44:51;6.35;;;1.75;;
69912;SDS011;57198;52.082;5.108;2024-03-23T08:47:17;7.88;;;2.20;;
69912;SDS011;57198;52.082;5.108;2024-03-23T08:49:44;7.00;;;2.38;;
69912;SDS011;57198;52.082;5.108;2024-03-23T08:52:10;7.05;;;2.58;;
69912;SDS011;57198;52.082;5.108;2024-03-23T08:54:37;8.90;;;2.53;;
69912;SDS011;57198;52.082;5.108;2024-03-23T08:57:03;6.53;;;2.85;;
69912;SDS011;57198;52.082;5.108;2024-03-23T08:59:30;7.60;;;2.33;;
69912;SDS011;57198;52.082;5.108;2024-03-23T09:01:56;6.20;;;2.05;;
69912;SDS011;57198;52.082;5.108;2024-03-23T09:04:22;10.35;;;2.60;;
69912;SDS011;57198;52.082;5.108;2024-03-23T09:06:49;6.60;;;2.35;;
69912;SDS011;57198;52.082;5.108;2024-03-23T09:09:15;4.20;;;2.30;;
69912;SDS011;57198;52.082;5.108;2024-03-23T09:11:42;13.20;;;2.60;;
69912;SDS011;57198;52.082;5.108;2024-03-23T09:14:08;7.30;;;2.65;;
69912;SDS011;57198;52.082;5.108;2024-03-23T09:16:34;7.45;;;2.28;;
69912;SDS011;57198;52.082;5.108;2024-03-23T09:19:01;6.18;;;2.28;;
69912;SDS011;57198;52.082;5.108;2024-03-23T09:21:27;10.38;;;2.63;;
69912;SDS011;57198;52.082;5.108;2024-03-23T09:23:54;9.77;;;2.65;;
69912;SDS011;57198;52.082;5.108;2024-03-23T09:26:20;11.88;;;3.10;;
69912;SDS011;57198;52.082;5.108;2024-03-23T09:28:48;9.70;;;2.67;;
69912;SDS011;57198;52.082;5.108;2024-03-23T09:31:14;8.07;;;2.20;;
69912;SDS011;57198;52.082;5.108;2024-03-23T09:33:41;5.35;;;2.70;;
69912;SDS011;57198;52.082;5.108;2024-03-23T09:36:08;4.47;;;2.25;;
69912;SDS011;57198;52.082;5.108;2024-03-23T09:38:34;15.05;;;2.30;;
69912;SDS011;57198;52.082;5.108;2024-03-23T09:41:06;9.57;;;3.30;;
69912;SDS011;57198;52.082;5.108;2024-03-23T09:43:33;8.05;;;2.70;;
69912;SDS011;57198;52.082;5.108;2024-03-23T09:45:59;8.52;;;3.45;;
69912;SDS011;57198;52.082;5.108;2024-03-23T09:48:26;9.10;;;2.17;;
69912;SDS011;57198;52.082;5.108;2024-03-23T09:50:52;8.13;;;2.88;;
69912;SDS011;57198;52.082;5.108;2024-03-23T09:53:18;6.82;;;2.15;;
69912;SDS011;57198;52.082;5.108;2024-03-23T09:55:45;7.03;;;2.60;;
69912;SDS011;57198;52.082;5.108;2024-03-23T09:58:12;9.30;;;2.67;;
69912;SDS011;57198;52.082;5.108;2024-03-23T10:00:38;6.38;;;2.28;;
69912;SDS011;57198;52.082;5.108;2024-03-23T10:03:05;3.20;;;1.70;;
69912;SDS011;57198;52.082;5.108;2024-03-23T10:05:32;8.40;;;2.22;;
69912;SDS011;57198;52.082;5.108;2024-03-23T10:10:40;10.05;;;2.38;;
69912;SDS011;57198;52.082;5.108;2024-03-23T10:13:07;5.72;;;1.80;;
69912;SDS011;57198;52.082;5.108;2024-03-23T10:15:33;6.20;;;2.00;;
69912;SDS011;57198;52.082;5.108;2024-03-23T10:20:42;7.05;;;2.58;;
69912;SDS011;57198;52.082;5.108;2024-03-23T10:23:15;6.97;;;2.60;;
69912;SDS011;57198;52.082;5.108;2024-03-23T10:25:42;11.23;;;2.42;;
69912;SDS011;57198;52.082;5.108;2024-03-23T10:28:08;5.10;;;2.15;;
69912;SDS011;57198;52.082;5.108;2024-03-23T10:30:37;4.00;;;1.98;;
69912;SDS011;57198;52.082;5.108;2024-03-23T10:33:10;3.23;;;1.73;;
69912;SDS011;57198;52.082;5.108;2024-03-23T10:35:37;5.60;;;2.08;;
69912;SDS011;57198;52.082;5.108;2024-03-23T10:38:07;4.68;;;1.85;;
69912;SDS011;57198;52.082;5.108;2024-03-23T10:40:34;3.20;;;2.08;;
69912;SDS011;57198;52.082;5.108;2024-03-23T10:43:01;3.38;;;2.30;;
69912;SDS011;57198;52.082;5.108;2024-03-23T10:45:28;3.97;;;1.87;;
69912;SDS011;57198;52.082;5.108;2024-03-23T10:47:55;3.95;;;1.30;;
69912;SDS011;57198;52.082;5.108;2024-03-23T10:50:21;6.07;;;2.30;;
69912;SDS011;57198;52.082;5.108;2024-03-23T10:52:48;6.53;;;2.30;;
69912;SDS011;57198;52.082;5.108;2024-03-23T10:55:18;9.13;;;1.90;;
69912;SDS011;57198;52.082;5.108;2024-03-23T10:57:48;5.03;;;1.70;;
69912;SDS011;57198;52.082;5.108;2024-03-23T11:00:17;8.43;;;2.75;;
69912;SDS011;57198;52.082;5.108;2024-03-23T11:02:43;6.15;;;1.85;;
69912;SDS011;57198;52.082;5.108;2024-03-23T11:07:55;7.07;;;2.83;;
69912;SDS011;57198;52.082;5.108;2024-03-23T11:12:51;4.03;;;1.73;;
69912;SDS011;57198;52.082;5.108;2024-03-23T11:15:18;7.85;;;2.10;;
69912;SDS011;57198;52.082;5.108;2024-03-23T11:18:06;3.83;;;2.22;;
69912;SDS011;57198;52.082;5.108;2024-03-23T11:20:33;7.05;;;1.80;;
69912;SDS011;57198;52.082;5.108;2024-03-23T11:23:00;5.33;;;1.90;;
69912;SDS011;57198;52.082;5.108;2024-03-23T11:25:27;7.25;;;1.63;;
69912;SDS011;57198;52.082;5.108;2024-03-23T11:27:54;9.63;;;1.55;;
69912;SDS011;57198;52.082;5.108;2024-03-23T11:30:26;5.60;;;2.03;;
69912;SDS011;57198;52.082;5.108;2024-03-23T11:32:54;7.35;;;1.50;;
69912;SDS011;57198;52.082;5.108;2024-03-23T11:35:24;5.67;;;1.83;;
69912;SDS011;57198;52.082;5.108;2024-03-23T11:38:33;6.32;;;2.25;;
69912;SDS011;57198;52.082;5.108;2024-03-23T11:43:08;7.10;;;2.47;;
69912;SDS011;57198;52.082;5.108;2024-03-23T11:45:36;7.25;;;2.22;;
69912;SDS011;57198;52.082;5.108;2024-03-23T11:50:29;4.18;;;2.50;;
69912;SDS011;57198;52.082;5.108;2024-03-23T11:55:47;4.07;;;2.00;;
69912;SDS011;57198;52.082;5.108;2024-03-23T11:58:14;7.60;;;2.40;;
69912;SDS011;57198;52.082;5.108;2024-03-23T12:00:41;5.53;;;1.43;;
69912;SDS011;57198;52.082;5.108;2024-03-23T12:03:08;9.32;;;2.13;;
69912;SDS011;57198;52.082;5.108;2024-03-23T12:05:36;6.75;;;1.60;;
69912;SDS011;57198;52.082;5.108;2024-03-23T12:08:19;8.98;;;2.03;;
69912;SDS011;57198;52.082;5.108;2024-03-23T12:10:47;6.63;;;1.83;;
69912;SDS011;57198;52.082;5.108;2024-03-23T12:13:14;6.97;;;1.83;;
69912;SDS011;57198;52.082;5.108;2024-03-23T12:15:42;5.05;;;1.70;;
69912;SDS011;57198;52.082;5.108;2024-03-23T12:18:09;4.45;;;0.95;;
69912;SDS011;57198;52.082;5.108;2024-03-23T12:20:36;4.53;;;1.52;;
69912;SDS011;57198;52.082;5.108;2024-03-23T12:23:10;6.05;;;2.40;;
69912;SDS011;57198;52.082;5.108;2024-03-23T12:25:39;7.87;;;3.03;;
69912;SDS011;57198;52.082;5.108;2024-03-23T12:28:06;8.43;;;2.28;;
69912;SDS011;57198;52.082;5.108;2024-03-23T12:30:33;10.85;;;1.45;;
69912;SDS011;57198;52.082;5.108;2024-03-23T12:33:00;4.63;;;1.60;;
69912;SDS011;57198;52.082;5.108;2024-03-23T12:35:26;6.05;;;1.48;;
69912;SDS011;57198;52.082;5.108;2024-03-23T12:37:53;8.93;;;2.10;;
69912;SDS011;57198;52.082;5.108;2024-03-23T12:40:19;4.85;;;2.35;;
69912;SDS011;57198;52.082;5.108;2024-03-23T12:42:46;3.78;;;1.65;;
69912;SDS011;57198;52.082;5.108;2024-03-23T12:45:12;7.30;;;2.28;;
69912;SDS011;57198;52.082;5.108;2024-03-23T12:47:39;6.75;;;1.63;;
69912;SDS011;57198;52.082;5.108;2024-03-23T12:50:05;5.47;;;1.87;;
69912;SDS011;57198;52.082;5.108;2024-03-23T12:52:32;6.15;;;2.25;;
69912;SDS011;57198;52.082;5.108;2024-03-23T12:54:59;4.45;;;1.88;;
69912;SDS011;57198;52.082;5.108;2024-03-23T12:57:25;5.18;;;1.75;;
69912;SDS011;57198;52.082;5.108;2024-03-23T12:59:52;5.07;;;1.60;;
69912;SDS011;57198;52.082;5.108;2024-03-23T13:02:19;6.50;;;2.17;;
69912;SDS011;57198;52.082;5.108;2024-03-23T13:04:46;4.35;;;1.65;;
69912;SDS011;57198;52.082;5.108;2024-03-23T13:07:13;3.30;;;1.15;;
69912;SDS011;57198;52.082;5.108;2024-03-23T13:09:39;2.65;;;1.25;;
69912;SDS011;57198;52.082;5.108;2024-03-23T13:12:06;5.78;;;3.10;;
69912;SDS011;57198;52.082;5.108;2024-03-23T13:14:33;4.90;;;2.10;;
69912;SDS011;57198;52.082;5.108;2024-03-23T13:16:59;2.75;;;1.90;;
69912;SDS011;57198;52.082;5.108;2024-03-23T13:19:27;3.42;;;1.30;;
69912;SDS011;57198;52.082;5.108;2024-03-23T13:21:59;3.50;;;1.40;;
69912;SDS011;57198;52.082;5.108;2024-03-23T13:24:26;6.18;;;2.72;;
69912;SDS011;57198;52.082;5.108;2024-03-23T13:26:53;6.60;;;2.30;;
69912;SDS011;57198;52.082;5.108;2024-03-23T13:29:19;6.15;;;1.92;;
69912;SDS011;57198;52.082;5.108;2024-03-23T13:31:46;6.95;;;1.83;;
69912;SDS011;57198;52.082;5.108;2024-03-23T13:34:13;3.08;;;1.67;;
69912;SDS011;57198;52.082;5.108;2024-03-23T13:36:40;6.88;;;1.67;;
69912;SDS011;57198;52.082;5.108;2024-03-23T13:39:07;5.03;;;1.47;;
69912;SDS011;57198;52.082;5.108;2024-03-23T13:41:40;3.45;;;1.73;;
69912;SDS011;57198;52.082;5.108;2024-03-23T13:44:07;4.03;;;2.00;;
69912;SDS011;57198;52.082;5.108;2024-03-23T13:46:33;5.40;;;2.15;;
69912;SDS011;57198;52.082;5.108;2024-03-23T13:49:00;7.97;;;2.30;;
69912;SDS011;57198;52.082;5.108;2024-03-23T13:51:26;5.77;;;2.40;;
69912;SDS011;57198;52.082;5.108;2024-03-23T13:53:53;4.55;;;2.25;;
69912;SDS011;57198;52.082;5.108;2024-03-23T13:56:20;6.20;;;1.80;;
69912;SDS011;57198;52.082;5.108;2024-03-23T13:58:47;6.93;;;3.08;;
69912;SDS011;57198;52.082;5.108;2024-03-23T14:01:13;6.88;;;2.40;;
69912;SDS011;57198;52.082;5.108;2024-03-23T14:03:40;7.50;;;2.87;;
69912;SDS011;57198;52.082;5.108;2024-03-23T14:06:07;10.00;;;2.60;;
69912;SDS011;57198;52.082;5.108;2024-03-23T14:08:37;6.20;;;2.10;;
69912;SDS011;57198;52.082;5.108;2024-03-23T14:11:07;4.28;;;1.75;;
69912;SDS011;57198;52.082;5.108;2024-03-23T14:13:34;6.13;;;2.00;;
69912;SDS011;57198;52.082;5.108;2024-03-23T14:16:01;6.07;;;2.03;;
69912;SDS011;57198;52.082;5.108;2024-03-23T14:18:28;3.20;;;1.85;;
69912;SDS011;57198;52.082;5.108;2024-03-23T14:20:58;7.55;;;1.42;;
69912;SDS011;57198;52.082;5.108;2024-03-23T14:23:28;2.42;;;1.70;;
69912;SDS011;57198;52.082;5.108;2024-03-23T14:25:55;5.70;;;1.77;;
69912;SDS011;57198;52.082;5.108;2024-03-23T14:28:22;6.03;;;2.23;;
69912;SDS011;57198;52.082;5.108;2024-03-23T14:30:49;2.67;;;2.05;;
69912;SDS011;57198;52.082;5.108;2024-03-23T14:33:16;5.18;;;1.73;;
69912;SDS011;57198;52.082;5.108;2024-03-23T14:35:52;3.35;;;1.20;;
69912;SDS011;57198;52.082;5.108;2024-03-23T14:38:19;5.57;;;2.03;;
69912;SDS011;57198;52.082;5.108;2024-03-23T14:40:45;8.48;;;1.92;;
69912;SDS011;57198;52.082;5.108;2024-03-23T14:43:12;7.63;;;1.67;;
69912;SDS011;57198;52.082;5.108;2024-03-23T14:48:27;2.95;;;1.77;;
69912;SDS011;57198;52.082;5.108;2024-03-23T14:50:56;8.18;;;2.05;;
69912;SDS011;57198;52.082;5.108;2024-03-23T14:53:22;2.85;;;1.70;;
69912;SDS011;57198;52.082;5.108;2024-03-23T14:55:49;5.03;;;2.22;;
69912;SDS011;57198;52.082;5.108;2024-03-23T14:58:16;4.05;;;1.40;;
69912;SDS011;57198;52.082;5.108;2024-03-23T15:00:42;2.58;;;1.52;;
69912;SDS011;57198;52.082;5.108;2024-03-23T15:03:08;3.70;;;1.90;;
69912;SDS011;57198;52.082;5.108;2024-03-23T15:05:35;6.93;;;2.00;;
69912;SDS011;57198;52.082;5.108;2024-03-23T15:08:02;4.47;;;1.95;;
69912;SDS011;57198;52.082;5.108;2024-03-23T15:10:29;7.00;;;2.08;;
69912;SDS011;57198;52.082;5.108;2024-03-23T15:12:55;2.72;;;1.75;;
69912;SDS011;57198;52.082;5.108;2024-03-23T15:15:22;3.60;;;1.38;;
69912;SDS011;57198;52.082;5.108;2024-03-23T15:17:48;6.25;;;1.80;;
69912;SDS011;57198;52.082;5.108;2024-03-23T15:20:15;6.65;;;2.75;;
69912;SDS011;57198;52.082;5.108;2024-03-23T15:22:42;3.30;;;2.10;;
69912;SDS011;57198;52.082;5.108;2024-03-23T15:25:08;6.10;;;1.88;;
69912;SDS011;57198;52.082;5.108;2024-03-23T15:27:35;7.00;;;2.00;;
69912;SDS011;57198;52.082;5.108;2024-03-23T15:30:01;6.30;;;1.95;;
69912;SDS011;57198;52.082;5.108;2024-03-23T15:32:28;4.90;;;1.98;;
69912;SDS011;57198;52.082;5.108;2024-03-23T15:34:54;4.90;;;1.67;;
69912;SDS011;57198;52.082;5.108;2024-03-23T15:37:21;4.45;;;1.65;;
69912;SDS011;57198;52.082;5.108;2024-03-23T15:39:47;4.82;;;1.65;;
69912;SDS011;57198;52.082;5.108;2024-03-23T15:42:13;4.13;;;1.88;;
69912;SDS011;57198;52.082;5.108;2024-03-23T15:44:40;7.03;;;2.53;;
69912;SDS011;57198;52.082;5.108;2024-03-23T15:47:06;6.80;;;2.42;;
69912;SDS011;57198;52.082;5.108;2024-03-23T15:49:33;4.78;;;1.88;;
69912;SDS011;57198;52.082;5.108;2024-03-23T15:51:59;8.43;;;2.38;;
69912;SDS011;57198;52.082;5.108;2024-03-23T15:54:25;6.93;;;2.28;;
69912;SDS011;57198;52.082;5.108;2024-03-23T15:56:52;4.10;;;2.17;;